Terminal Aerodrome Forecast
Issued by NWS Wilmington, NC

Home | Current Version | Previous Version | Text Only | Print | Product List | Glossary On
Versions: 1 2 3 4 5 6 7 8 9 10 11 12 13 14 15 16 17
000
FTUS42 KILM 290532
TAFLBT
TAF
KLBT 290532Z 2906/3006 29005KT P6SM FEW250
     FM291800 25007KT P6SM FEW050 SCT150
     FM300200 21004KT P6SM BKN050 PROB30 3003/3006 4SM -TSRA
      OVC015CB=

USA.gov is the U.S. government's official web portal to all federal, state and local government web resources and services.